sensor_id;sensor_type;location;lat;lon;timestamp;P1;durP1;ratioP1;P2;durP2;ratioP2
59306;SDS011;47983;53.016;-2.260;2023-07-08T00:00:26;7.47;;;3.28;;
59306;SDS011;47983;53.016;-2.260;2023-07-08T00:02:54;6.68;;;3.50;;
59306;SDS011;47983;53.016;-2.260;2023-07-08T00:05:22;6.82;;;3.22;;
59306;SDS011;47983;53.016;-2.260;2023-07-08T00:07:52;5.53;;;3.50;;
59306;SDS011;47983;53.016;-2.260;2023-07-08T00:10:21;7.82;;;3.70;;
59306;SDS011;47983;53.016;-2.260;2023-07-08T00:12:52;8.73;;;3.95;;
59306;SDS011;47983;53.016;-2.260;2023-07-08T00:15:29;8.18;;;3.72;;
59306;SDS011;47983;53.016;-2.260;2023-07-08T00:17:59;7.68;;;3.63;;
59306;SDS011;47983;53.016;-2.260;2023-07-08T00:20:37;5.65;;;2.95;;
59306;SDS011;47983;53.016;-2.260;2023-07-08T00:23:15;9.18;;;3.28;;
59306;SDS011;47983;53.016;-2.260;2023-07-08T00:25:43;6.70;;;3.08;;
59306;SDS011;47983;53.016;-2.260;2023-07-08T00:28:15;7.32;;;3.17;;
59306;SDS011;47983;53.016;-2.260;2023-07-08T00:30:45;8.13;;;3.38;;
59306;SDS011;47983;53.016;-2.260;2023-07-08T00:33:12;7.15;;;3.78;;
59306;SDS011;47983;53.016;-2.260;2023-07-08T00:35:41;7.47;;;3.45;;
59306;SDS011;47983;53.016;-2.260;2023-07-08T00:40:48;6.78;;;3.47;;
59306;SDS011;47983;53.016;-2.260;2023-07-08T00:43:50;5.45;;;3.25;;
59306;SDS011;47983;53.016;-2.260;2023-07-08T00:46:25;6.88;;;3.17;;
59306;SDS011;47983;53.016;-2.260;2023-07-08T00:49:03;8.70;;;3.90;;
59306;SDS011;47983;53.016;-2.260;2023-07-08T00:51:36;10.38;;;3.25;;
59306;SDS011;47983;53.016;-2.260;2023-07-08T00:54:12;7.55;;;3.25;;
59306;SDS011;47983;53.016;-2.260;2023-07-08T00:57:02;6.35;;;3.10;;
59306;SDS011;47983;53.016;-2.260;2023-07-08T00:59:35;8.75;;;3.58;;
59306;SDS011;47983;53.016;-2.260;2023-07-08T01:02:08;7.65;;;3.63;;
59306;SDS011;47983;53.016;-2.260;2023-07-08T01:04:44;5.28;;;3.13;;
59306;SDS011;47983;53.016;-2.260;2023-07-08T01:07:16;9.30;;;3.65;;
59306;SDS011;47983;53.016;-2.260;2023-07-08T01:09:54;6.35;;;3.40;;
59306;SDS011;47983;53.016;-2.260;2023-07-08T01:12:26;6.88;;;3.47;;
59306;SDS011;47983;53.016;-2.260;2023-07-08T01:15:01;5.60;;;3.10;;
59306;SDS011;47983;53.016;-2.260;2023-07-08T01:17:30;11.30;;;3.60;;
59306;SDS011;47983;53.016;-2.260;2023-07-08T01:20:03;6.40;;;3.63;;
59306;SDS011;47983;53.016;-2.260;2023-07-08T01:22:41;7.53;;;3.17;;
59306;SDS011;47983;53.016;-2.260;2023-07-08T01:25:09;12.93;;;3.63;;
59306;SDS011;47983;53.016;-2.260;2023-07-08T01:27:40;7.13;;;3.65;;
59306;SDS011;47983;53.016;-2.260;2023-07-08T01:30:12;8.25;;;2.85;;
59306;SDS011;47983;53.016;-2.260;2023-07-08T01:32:47;7.05;;;3.17;;
59306;SDS011;47983;53.016;-2.260;2023-07-08T01:35:18;7.43;;;3.00;;
59306;SDS011;47983;53.016;-2.260;2023-07-08T01:37:51;7.30;;;3.53;;
59306;SDS011;47983;53.016;-2.260;2023-07-08T01:42:55;6.25;;;3.30;;
59306;SDS011;47983;53.016;-2.260;2023-07-08T01:45:24;7.97;;;3.47;;
59306;SDS011;47983;53.016;-2.260;2023-07-08T01:47:55;5.72;;;3.45;;
59306;SDS011;47983;53.016;-2.260;2023-07-08T01:50:25;6.70;;;3.40;;
59306;SDS011;47983;53.016;-2.260;2023-07-08T01:52:55;6.40;;;3.10;;
59306;SDS011;47983;53.016;-2.260;2023-07-08T01:55:26;7.55;;;3.78;;
59306;SDS011;47983;53.016;-2.260;2023-07-08T01:57:58;5.85;;;3.50;;
59306;SDS011;47983;53.016;-2.260;2023-07-08T02:00:26;6.47;;;3.13;;
59306;SDS011;47983;53.016;-2.260;2023-07-08T02:02:53;7.40;;;3.50;;
59306;SDS011;47983;53.016;-2.260;2023-07-08T02:05:22;8.18;;;3.75;;
59306;SDS011;47983;53.016;-2.260;2023-07-08T02:07:50;7.47;;;2.78;;
59306;SDS011;47983;53.016;-2.260;2023-07-08T02:10:18;9.35;;;3.45;;
59306;SDS011;47983;53.016;-2.260;2023-07-08T02:12:47;8.80;;;2.90;;
59306;SDS011;47983;53.016;-2.260;2023-07-08T02:15:14;6.63;;;3.33;;
59306;SDS011;47983;53.016;-2.260;2023-07-08T02:17:42;5.28;;;3.20;;
59306;SDS011;47983;53.016;-2.260;2023-07-08T02:20:10;5.85;;;3.63;;
59306;SDS011;47983;53.016;-2.260;2023-07-08T02:22:38;5.60;;;3.38;;
59306;SDS011;47983;53.016;-2.260;2023-07-08T02:25:06;7.90;;;3.45;;
59306;SDS011;47983;53.016;-2.260;2023-07-08T02:27:33;7.38;;;3.33;;
59306;SDS011;47983;53.016;-2.260;2023-07-08T02:30:01;6.97;;;3.72;;
59306;SDS011;47983;53.016;-2.260;2023-07-08T02:32:29;6.80;;;2.97;;
59306;SDS011;47983;53.016;-2.260;2023-07-08T02:34:57;8.18;;;3.30;;
59306;SDS011;47983;53.016;-2.260;2023-07-08T02:37:25;5.35;;;3.20;;
59306;SDS011;47983;53.016;-2.260;2023-07-08T02:39:53;4.75;;;3.00;;
59306;SDS011;47983;53.016;-2.260;2023-07-08T02:42:20;6.45;;;2.85;;
59306;SDS011;47983;53.016;-2.260;2023-07-08T02:44:48;5.82;;;3.40;;
59306;SDS011;47983;53.016;-2.260;2023-07-08T02:47:15;8.10;;;3.58;;
59306;SDS011;47983;53.016;-2.260;2023-07-08T02:49:43;6.65;;;3.28;;
59306;SDS011;47983;53.016;-2.260;2023-07-08T02:52:12;6.05;;;3.75;;
59306;SDS011;47983;53.016;-2.260;2023-07-08T02:54:40;7.93;;;3.17;;
59306;SDS011;47983;53.016;-2.260;2023-07-08T02:57:07;5.95;;;3.00;;
59306;SDS011;47983;53.016;-2.260;2023-07-08T02:59:35;13.73;;;3.40;;
59306;SDS011;47983;53.016;-2.260;2023-07-08T03:02:03;7.10;;;3.33;;
59306;SDS011;47983;53.016;-2.260;2023-07-08T03:04:31;5.28;;;3.33;;
59306;SDS011;47983;53.016;-2.260;2023-07-08T03:06:58;9.10;;;3.17;;
59306;SDS011;47983;53.016;-2.260;2023-07-08T03:09:27;6.90;;;3.45;;
59306;SDS011;47983;53.016;-2.260;2023-07-08T03:11:55;5.03;;;3.10;;
59306;SDS011;47983;53.016;-2.260;2023-07-08T03:14:23;7.10;;;3.50;;
59306;SDS011;47983;53.016;-2.260;2023-07-08T03:16:51;8.52;;;3.40;;
59306;SDS011;47983;53.016;-2.260;2023-07-08T03:19:19;5.15;;;3.05;;
59306;SDS011;47983;53.016;-2.260;2023-07-08T03:21:47;7.78;;;3.60;;
59306;SDS011;47983;53.016;-2.260;2023-07-08T03:24:15;6.10;;;3.17;;
59306;SDS011;47983;53.016;-2.260;2023-07-08T03:26:46;6.20;;;3.72;;
59306;SDS011;47983;53.016;-2.260;2023-07-08T03:29:15;7.40;;;3.40;;
59306;SDS011;47983;53.016;-2.260;2023-07-08T03:31:46;6.28;;;2.97;;
59306;SDS011;47983;53.016;-2.260;2023-07-08T03:34:15;9.98;;;3.17;;
59306;SDS011;47983;53.016;-2.260;2023-07-08T03:36:47;6.63;;;3.10;;
59306;SDS011;47983;53.016;-2.260;2023-07-08T03:39:18;6.80;;;3.20;;
59306;SDS011;47983;53.016;-2.260;2023-07-08T03:41:48;7.65;;;3.45;;
59306;SDS011;47983;53.016;-2.260;2023-07-08T03:44:18;6.47;;;3.70;;
59306;SDS011;47983;53.016;-2.260;2023-07-08T03:46:47;8.00;;;3.28;;
59306;SDS011;47983;53.016;-2.260;2023-07-08T03:49:20;6.88;;;3.63;;
59306;SDS011;47983;53.016;-2.260;2023-07-08T03:51:52;6.43;;;2.95;;
59306;SDS011;47983;53.016;-2.260;2023-07-08T03:54:22;11.87;;;4.00;;
59306;SDS011;47983;53.016;-2.260;2023-07-08T03:56:53;7.53;;;3.42;;
59306;SDS011;47983;53.016;-2.260;2023-07-08T03:59:23;5.90;;;3.50;;
59306;SDS011;47983;53.016;-2.260;2023-07-08T04:01:53;9.13;;;3.30;;
59306;SDS011;47983;53.016;-2.260;2023-07-08T04:04:22;11.55;;;3.53;;
59306;SDS011;47983;53.016;-2.260;2023-07-08T04:06:50;7.38;;;3.55;;
59306;SDS011;47983;53.016;-2.260;2023-07-08T04:09:18;4.93;;;3.03;;
59306;SDS011;47983;53.016;-2.260;2023-07-08T04:11:46;7.75;;;3.50;;
59306;SDS011;47983;53.016;-2.260;2023-07-08T04:14:13;7.60;;;3.10;;
59306;SDS011;47983;53.016;-2.260;2023-07-08T04:19:13;6.63;;;3.92;;
59306;SDS011;47983;53.016;-2.260;2023-07-08T04:21:42;6.47;;;3.60;;
59306;SDS011;47983;53.016;-2.260;2023-07-08T04:24:12;6.90;;;2.97;;
59306;SDS011;47983;53.016;-2.260;2023-07-08T04:26:41;5.82;;;3.60;;
59306;SDS011;47983;53.016;-2.260;2023-07-08T04:29:12;7.88;;;3.60;;
59306;SDS011;47983;53.016;-2.260;2023-07-08T04:31:41;6.03;;;3.25;;
59306;SDS011;47983;53.016;-2.260;2023-07-08T04:34:09;7.03;;;3.20;;
59306;SDS011;47983;53.016;-2.260;2023-07-08T04:36:37;8.48;;;3.90;;
59306;SDS011;47983;53.016;-2.260;2023-07-08T04:39:05;9.05;;;3.45;;
59306;SDS011;47983;53.016;-2.260;2023-07-08T04:41:35;9.25;;;3.70;;
59306;SDS011;47983;53.016;-2.260;2023-07-08T04:44:07;8.50;;;3.50;;
59306;SDS011;47983;53.016;-2.260;2023-07-08T04:46:39;6.20;;;3.65;;
59306;SDS011;47983;53.016;-2.260;2023-07-08T04:49:09;7.18;;;3.80;;
59306;SDS011;47983;53.016;-2.260;2023-07-08T04:51:37;7.55;;;3.72;;
59306;SDS011;47983;53.016;-2.260;2023-07-08T04:54:06;8.10;;;4.20;;
59306;SDS011;47983;53.016;-2.260;2023-07-08T04:56:35;8.00;;;3.75;;
59306;SDS011;47983;53.016;-2.260;2023-07-08T04:59:05;11.85;;;4.03;;
59306;SDS011;47983;53.016;-2.260;2023-07-08T05:01:35;7.45;;;3.35;;
59306;SDS011;47983;53.016;-2.260;2023-07-08T05:04:03;7.05;;;3.42;;
59306;SDS011;47983;53.016;-2.260;2023-07-08T05:06:34;10.45;;;3.55;;
59306;SDS011;47983;53.016;-2.260;2023-07-08T05:09:02;5.32;;;3.08;;
59306;SDS011;47983;53.016;-2.260;2023-07-08T05:11:31;8.13;;;3.63;;
59306;SDS011;47983;53.016;-2.260;2023-07-08T05:13:59;9.80;;;3.60;;
59306;SDS011;47983;53.016;-2.260;2023-07-08T05:16:27;11.05;;;3.97;;
59306;SDS011;47983;53.016;-2.260;2023-07-08T05:18:55;8.48;;;3.53;;
59306;SDS011;47983;53.016;-2.260;2023-07-08T05:21:23;7.07;;;4.20;;
59306;SDS011;47983;53.016;-2.260;2023-07-08T05:26:21;13.80;;;3.70;;
59306;SDS011;47983;53.016;-2.260;2023-07-08T05:28:49;7.47;;;4.03;;
59306;SDS011;47983;53.016;-2.260;2023-07-08T05:31:17;7.55;;;3.70;;
59306;SDS011;47983;53.016;-2.260;2023-07-08T05:33:45;6.85;;;3.72;;
59306;SDS011;47983;53.016;-2.260;2023-07-08T05:36:13;9.95;;;3.90;;
59306;SDS011;47983;53.016;-2.260;2023-07-08T05:38:40;7.95;;;3.60;;
59306;SDS011;47983;53.016;-2.260;2023-07-08T05:41:08;7.85;;;3.88;;
59306;SDS011;47983;53.016;-2.260;2023-07-08T05:43:36;7.10;;;3.40;;
59306;SDS011;47983;53.016;-2.260;2023-07-08T05:46:03;7.90;;;3.55;;
59306;SDS011;47983;53.016;-2.260;2023-07-08T05:48:38;9.98;;;3.85;;
59306;SDS011;47983;53.016;-2.260;2023-07-08T05:51:07;6.65;;;3.47;;
59306;SDS011;47983;53.016;-2.260;2023-07-08T05:53:34;11.20;;;4.20;;
59306;SDS011;47983;53.016;-2.260;2023-07-08T05:56:02;8.77;;;3.70;;
59306;SDS011;47983;53.016;-2.260;2023-07-08T05:58:31;10.40;;;4.10;;
59306;SDS011;47983;53.016;-2.260;2023-07-08T06:00:59;8.40;;;4.30;;
59306;SDS011;47983;53.016;-2.260;2023-07-08T06:03:28;7.30;;;4.20;;
59306;SDS011;47983;53.016;-2.260;2023-07-08T06:05:56;10.52;;;3.92;;
59306;SDS011;47983;53.016;-2.260;2023-07-08T06:08:23;10.02;;;4.13;;
59306;SDS011;47983;53.016;-2.260;2023-07-08T06:10:51;8.93;;;4.32;;
59306;SDS011;47983;53.016;-2.260;2023-07-08T06:13:19;8.05;;;4.00;;
59306;SDS011;47983;53.016;-2.260;2023-07-08T06:15:46;12.50;;;3.50;;
59306;SDS011;47983;53.016;-2.260;2023-07-08T06:18:14;8.98;;;4.07;;
59306;SDS011;47983;53.016;-2.260;2023-07-08T06:20:42;11.30;;;4.30;;
59306;SDS011;47983;53.016;-2.260;2023-07-08T06:23:18;9.32;;;4.10;;
59306;SDS011;47983;53.016;-2.260;2023-07-08T06:25:46;8.82;;;4.07;;
59306;SDS011;47983;53.016;-2.260;2023-07-08T06:28:13;7.10;;;3.95;;
59306;SDS011;47983;53.016;-2.260;2023-07-08T06:30:41;8.93;;;3.88;;
59306;SDS011;47983;53.016;-2.260;2023-07-08T06:33:10;8.05;;;4.05;;
59306;SDS011;47983;53.016;-2.260;2023-07-08T06:35:38;6.82;;;4.18;;
59306;SDS011;47983;53.016;-2.260;2023-07-08T06:38:07;9.07;;;4.22;;
59306;SDS011;47983;53.016;-2.260;2023-07-08T06:40:35;12.55;;;4.05;;
59306;SDS011;47983;53.016;-2.260;2023-07-08T06:43:02;7.65;;;4.32;;
59306;SDS011;47983;53.016;-2.260;2023-07-08T06:45:40;8.40;;;3.70;;
59306;SDS011;47983;53.016;-2.260;2023-07-08T06:48:08;9.10;;;4.05;;
59306;SDS011;47983;53.016;-2.260;2023-07-08T06:50:37;7.57;;;4.13;;
59306;SDS011;47983;53.016;-2.260;2023-07-08T06:53:05;8.73;;;4.00;;
59306;SDS011;47983;53.016;-2.260;2023-07-08T06:55:35;7.32;;;3.88;;
59306;SDS011;47983;53.016;-2.260;2023-07-08T06:58:02;8.35;;;4.35;;
59306;SDS011;47983;53.016;-2.260;2023-07-08T07:00:30;9.75;;;4.60;;
59306;SDS011;47983;53.016;-2.260;2023-07-08T07:02:58;7.28;;;3.97;;
59306;SDS011;47983;53.016;-2.260;2023-07-08T07:05:27;9.95;;;4.00;;
59306;SDS011;47983;53.016;-2.260;2023-07-08T07:07:55;6.05;;;3.58;;
59306;SDS011;47983;53.016;-2.260;2023-07-08T07:10:23;11.07;;;4.32;;
59306;SDS011;47983;53.016;-2.260;2023-07-08T07:12:51;11.68;;;4.10;;
59306;SDS011;47983;53.016;-2.260;2023-07-08T07:15:18;5.53;;;3.38;;
59306;SDS011;47983;53.016;-2.260;2023-07-08T07:17:46;6.32;;;3.80;;
59306;SDS011;47983;53.016;-2.260;2023-07-08T07:20:14;6.97;;;3.95;;
59306;SDS011;47983;53.016;-2.260;2023-07-08T07:22:41;7.13;;;4.03;;
59306;SDS011;47983;53.016;-2.260;2023-07-08T07:25:09;11.30;;;4.55;;
59306;SDS011;47983;53.016;-2.260;2023-07-08T07:27:37;7.68;;;4.03;;
59306;SDS011;47983;53.016;-2.260;2023-07-08T07:30:05;9.07;;;3.95;;
59306;SDS011;47983;53.016;-2.260;2023-07-08T07:32:33;6.88;;;4.22;;
59306;SDS011;47983;53.016;-2.260;2023-07-08T07:35:02;9.73;;;3.55;;
59306;SDS011;47983;53.016;-2.260;2023-07-08T07:37:29;6.40;;;3.47;;
59306;SDS011;47983;53.016;-2.260;2023-07-08T07:39:57;9.07;;;4.50;;
59306;SDS011;47983;53.016;-2.260;2023-07-08T07:42:26;7.20;;;4.15;;
59306;SDS011;47983;53.016;-2.260;2023-07-08T07:44:55;10.43;;;4.15;;
59306;SDS011;47983;53.016;-2.260;2023-07-08T07:47:23;7.03;;;4.20;;
59306;SDS011;47983;53.016;-2.260;2023-07-08T07:49:51;8.02;;;4.03;;
59306;SDS011;47983;53.016;-2.260;2023-07-08T07:52:18;7.55;;;4.03;;
59306;SDS011;47983;53.016;-2.260;2023-07-08T07:54:51;5.85;;;3.95;;
59306;SDS011;47983;53.016;-2.260;2023-07-08T07:57:21;10.85;;;4.45;;
59306;SDS011;47983;53.016;-2.260;2023-07-08T07:59:49;7.20;;;4.07;;
59306;SDS011;47983;53.016;-2.260;2023-07-08T08:02:17;11.10;;;3.90;;
59306;SDS011;47983;53.016;-2.260;2023-07-08T08:04:46;6.13;;;4.00;;
59306;SDS011;47983;53.016;-2.260;2023-07-08T08:07:13;7.85;;;4.30;;
59306;SDS011;47983;53.016;-2.260;2023-07-08T08:09:41;8.15;;;4.10;;
59306;SDS011;47983;53.016;-2.260;2023-07-08T08:12:10;13.63;;;3.70;;
59306;SDS011;47983;53.016;-2.260;2023-07-08T08:14:39;10.93;;;4.28;;
59306;SDS011;47983;53.016;-2.260;2023-07-08T08:17:07;9.07;;;4.25;;
59306;SDS011;47983;53.016;-2.260;2023-07-08T08:19:35;8.48;;;3.90;;
59306;SDS011;47983;53.016;-2.260;2023-07-08T08:22:03;7.47;;;3.67;;
59306;SDS011;47983;53.016;-2.260;2023-07-08T08:24:31;5.82;;;3.75;;
59306;SDS011;47983;53.016;-2.260;2023-07-08T08:26:58;6.50;;;3.97;;
59306;SDS011;47983;53.016;-2.260;2023-07-08T08:29:26;6.70;;;3.53;;
59306;SDS011;47983;53.016;-2.260;2023-07-08T08:31:54;8.40;;;4.20;;
59306;SDS011;47983;53.016;-2.260;2023-07-08T08:34:22;7.80;;;3.95;;
59306;SDS011;47983;53.016;-2.260;2023-07-08T08:36:50;16.30;;;4.25;;
59306;SDS011;47983;53.016;-2.260;2023-07-08T08:39:22;11.65;;;3.92;;
59306;SDS011;47983;53.016;-2.260;2023-07-08T08:41:51;7.28;;;3.70;;
59306;SDS011;47983;53.016;-2.260;2023-07-08T08:44:28;7.88;;;3.78;;
59306;SDS011;47983;53.016;-2.260;2023-07-08T08:47:14;10.20;;;3.90;;
59306;SDS011;47983;53.016;-2.260;2023-07-08T08:53:00;4.85;;;2.85;;
59306;SDS011;47983;53.016;-2.260;2023-07-08T08:55:30;6.60;;;3.47;;
59306;SDS011;47983;53.016;-2.260;2023-07-08T09:00:47;10.68;;;3.13;;
59306;SDS011;47983;53.016;-2.260;2023-07-08T09:06:23;6.85;;;3.08;;
59306;SDS011;47983;53.016;-2.260;2023-07-08T09:08:52;4.47;;;2.63;;
59306;SDS011;47983;53.016;-2.260;2023-07-08T09:11:27;5.28;;;2.45;;
59306;SDS011;47983;53.016;-2.260;2023-07-08T09:13:58;6.53;;;2.65;;
59306;SDS011;47983;53.016;-2.260;2023-07-08T09:16:43;7.38;;;2.78;;
59306;SDS011;47983;53.016;-2.260;2023-07-08T09:19:29;7.72;;;2.60;;
59306;SDS011;47983;53.016;-2.260;2023-07-08T09:22:02;5.53;;;2.50;;
59306;SDS011;47983;53.016;-2.260;2023-07-08T09:27:43;5.20;;;2.20;;
59306;SDS011;47983;53.016;-2.260;2023-07-08T09:30:13;5.05;;;2.55;;
59306;SDS011;47983;53.016;-2.260;2023-07-08T09:32:43;5.53;;;2.35;;
59306;SDS011;47983;53.016;-2.260;2023-07-08T09:35:16;6.40;;;2.40;;
59306;SDS011;47983;53.016;-2.260;2023-07-08T09:37:47;8.20;;;2.50;;
59306;SDS011;47983;53.016;-2.260;2023-07-08T09:42:48;5.20;;;2.65;;
59306;SDS011;47983;53.016;-2.260;2023-07-08T09:45:23;5.97;;;2.47;;
59306;SDS011;47983;53.016;-2.260;2023-07-08T09:47:52;9.95;;;2.85;;
59306;SDS011;47983;53.016;-2.260;2023-07-08T09:50:24;3.47;;;2.00;;
59306;SDS011;47983;53.016;-2.260;2023-07-08T09:52:55;3.50;;;2.15;;
59306;SDS011;47983;53.016;-2.260;2023-07-08T09:55:25;13.65;;;2.55;;
59306;SDS011;47983;53.016;-2.260;2023-07-08T09:57:53;6.13;;;2.47;;
59306;SDS011;47983;53.016;-2.260;2023-07-08T10:00:29;3.65;;;1.80;;
59306;SDS011;47983;53.016;-2.260;2023-07-08T10:03:04;2.72;;;2.15;;
59306;SDS011;47983;53.016;-2.260;2023-07-08T10:05:42;5.25;;;2.15;;
59306;SDS011;47983;53.016;-2.260;2023-07-08T10:08:20;5.47;;;2.08;;
59306;SDS011;47983;53.016;-2.260;2023-07-08T10:10:53;5.35;;;2.10;;
59306;SDS011;47983;53.016;-2.260;2023-07-08T10:16:22;3.92;;;1.88;;
59306;SDS011;47983;53.016;-2.260;2023-07-08T10:18:54;5.55;;;2.03;;
59306;SDS011;47983;53.016;-2.260;2023-07-08T10:41:16;5.20;;;1.92;;
59306;SDS011;47983;53.016;-2.260;2023-07-08T10:44:17;5.25;;;2.20;;
59306;SDS011;47983;53.016;-2.260;2023-07-08T11:01:05;7.25;;;2.35;;
59306;SDS011;47983;53.016;-2.260;2023-07-08T11:03:48;7.50;;;2.30;;
59306;SDS011;47983;53.016;-2.260;2023-07-08T11:09:02;6.20;;;2.83;;
59306;SDS011;47983;53.016;-2.260;2023-07-08T11:11:36;7.15;;;2.15;;
59306;SDS011;47983;53.016;-2.260;2023-07-08T11:14:33;6.68;;;2.38;;
59306;SDS011;47983;53.016;-2.260;2023-07-08T11:17:15;7.28;;;2.47;;
59306;SDS011;47983;53.016;-2.260;2023-07-08T11:19:49;7.65;;;2.67;;
59306;SDS011;47983;53.016;-2.260;2023-07-08T11:22:37;5.37;;;2.50;;
59306;SDS011;47983;53.016;-2.260;2023-07-08T11:25:16;9.40;;;3.03;;
59306;SDS011;47983;53.016;-2.260;2023-07-08T11:27:47;6.07;;;2.70;;
59306;SDS011;47983;53.016;-2.260;2023-07-08T11:30:20;7.85;;;2.83;;
59306;SDS011;47983;53.016;-2.260;2023-07-08T11:32:55;4.30;;;2.45;;
59306;SDS011;47983;53.016;-2.260;2023-07-08T11:38:09;6.30;;;2.63;;
59306;SDS011;47983;53.016;-2.260;2023-07-08T11:40:53;6.38;;;2.60;;
59306;SDS011;47983;53.016;-2.260;2023-07-08T11:43:28;8.95;;;3.17;;
59306;SDS011;47983;53.016;-2.260;2023-07-08T11:46:05;4.93;;;2.80;;
59306;SDS011;47983;53.016;-2.260;2023-07-08T11:48:39;11.05;;;3.65;;
59306;SDS011;47983;53.016;-2.260;2023-07-08T11:51:17;8.60;;;3.20;;
59306;SDS011;47983;53.016;-2.260;2023-07-08T11:53:50;7.85;;;3.28;;
59306;SDS011;47983;53.016;-2.260;2023-07-08T11:56:30;6.72;;;3.38;;
59306;SDS011;47983;53.016;-2.260;2023-07-08T11:59:18;7.30;;;3.10;;
59306;SDS011;47983;53.016;-2.260;2023-07-08T12:01:48;6.33;;;2.97;;
59306;SDS011;47983;53.016;-2.260;2023-07-08T12:04:25;8.65;;;2.80;;
59306;SDS011;47983;53.016;-2.260;2023-07-08T12:09:57;9.10;;;3.80;;
59306;SDS011;47983;53.016;-2.260;2023-07-08T12:12:30;8.63;;;3.58;;
59306;SDS011;47983;53.016;-2.260;2023-07-08T12:15:09;12.80;;;4.18;;
59306;SDS011;47983;53.016;-2.260;2023-07-08T12:17:43;7.18;;;3.50;;
59306;SDS011;47983;53.016;-2.260;2023-07-08T12:20:31;5.53;;;3.25;;
59306;SDS011;47983;53.016;-2.260;2023-07-08T12:23:02;9.15;;;3.13;;
59306;SDS011;47983;53.016;-2.260;2023-07-08T12:25:32;7.57;;;3.00;;
59306;SDS011;47983;53.016;-2.260;2023-07-08T12:28:02;6.15;;;2.60;;
59306;SDS011;47983;53.016;-2.260;2023-07-08T12:30:31;5.95;;;2.63;;
59306;SDS011;47983;53.016;-2.260;2023-07-08T12:33:00;4.63;;;2.33;;
59306;SDS011;47983;53.016;-2.260;2023-07-08T12:35:29;8.38;;;2.55;;
59306;SDS011;47983;53.016;-2.260;2023-07-08T12:38:00;5.65;;;2.60;;
59306;SDS011;47983;53.016;-2.260;2023-07-08T12:40:30;6.95;;;3.20;;
59306;SDS011;47983;53.016;-2.260;2023-07-08T12:42:58;5.65;;;2.13;;
59306;SDS011;47983;53.016;-2.260;2023-07-08T12:45:29;5.63;;;2.78;;
59306;SDS011;47983;53.016;-2.260;2023-07-08T12:47:58;6.13;;;2.92;;
59306;SDS011;47983;53.016;-2.260;2023-07-08T12:50:26;5.97;;;2.97;;
59306;SDS011;47983;53.016;-2.260;2023-07-08T12:52:53;9.20;;;2.95;;
59306;SDS011;47983;53.016;-2.260;2023-07-08T12:55:21;5.90;;;2.53;;
59306;SDS011;47983;53.016;-2.260;2023-07-08T12:57:50;8.30;;;3.13;;
59306;SDS011;47983;53.016;-2.260;2023-07-08T13:00:24;8.55;;;2.70;;
59306;SDS011;47983;53.016;-2.260;2023-07-08T13:02:59;6.93;;;2.65;;
59306;SDS011;47983;53.016;-2.260;2023-07-08T13:05:35;5.90;;;2.95;;
59306;SDS011;47983;53.016;-2.260;2023-07-08T13:08:04;6.00;;;3.20;;
59306;SDS011;47983;53.016;-2.260;2023-07-08T13:10:32;5.55;;;2.80;;
59306;SDS011;47983;53.016;-2.260;2023-07-08T13:13:02;9.55;;;2.88;;
59306;SDS011;47983;53.016;-2.260;2023-07-08T13:15:36;5.32;;;2.90;;
59306;SDS011;47983;53.016;-2.260;2023-07-08T13:18:14;7.82;;;3.35;;
59306;SDS011;47983;53.016;-2.260;2023-07-08T13:20:45;7.22;;;3.25;;
59306;SDS011;47983;53.016;-2.260;2023-07-08T13:23:16;10.13;;;3.03;;
59306;SDS011;47983;53.016;-2.260;2023-07-08T13:25:44;7.05;;;3.03;;
59306;SDS011;47983;53.016;-2.260;2023-07-08T13:28:18;7.75;;;3.10;;
59306;SDS011;47983;53.016;-2.260;2023-07-08T13:31:13;7.55;;;3.17;;
59306;SDS011;47983;53.016;-2.260;2023-07-08T13:33:53;6.35;;;3.13;;
59306;SDS011;47983;53.016;-2.260;2023-07-08T13:36:23;6.00;;;3.08;;
59306;SDS011;47983;53.016;-2.260;2023-07-08T13:39:02;10.00;;;3.33;;
59306;SDS011;47983;53.016;-2.260;2023-07-08T13:41:35;6.07;;;2.80;;
59306;SDS011;47983;53.016;-2.260;2023-07-08T13:44:06;6.78;;;2.67;;
59306;SDS011;47983;53.016;-2.260;2023-07-08T13:46:38;6.22;;;2.88;;
59306;SDS011;47983;53.016;-2.260;2023-07-08T13:49:13;7.78;;;3.17;;
59306;SDS011;47983;53.016;-2.260;2023-07-08T13:54:59;6.35;;;2.92;;
59306;SDS011;47983;53.016;-2.260;2023-07-08T13:57:33;7.35;;;2.53;;
59306;SDS011;47983;53.016;-2.260;2023-07-08T14:00:04;6.78;;;2.50;;
59306;SDS011;47983;53.016;-2.260;2023-07-08T14:02:43;7.88;;;2.70;;
59306;SDS011;47983;53.016;-2.260;2023-07-08T14:05:12;5.68;;;2.42;;
59306;SDS011;47983;53.016;-2.260;2023-07-08T14:07:48;8.25;;;2.67;;
59306;SDS011;47983;53.016;-2.260;2023-07-08T14:10:17;7.15;;;2.72;;
59306;SDS011;47983;53.016;-2.260;2023-07-08T14:12:44;6.97;;;3.08;;
59306;SDS011;47983;53.016;-2.260;2023-07-08T14:15:12;6.25;;;2.72;;
59306;SDS011;47983;53.016;-2.260;2023-07-08T14:17:40;5.72;;;2.60;;
59306;SDS011;47983;53.016;-2.260;2023-07-08T14:20:11;9.18;;;2.58;;
59306;SDS011;47983;53.016;-2.260;2023-07-08T14:22:43;9.23;;;3.88;;
59306;SDS011;47983;53.016;-2.260;2023-07-08T14:25:17;8.38;;;3.20;;
59306;SDS011;47983;53.016;-2.260;2023-07-08T14:27:47;7.70;;;2.33;;
59306;SDS011;47983;53.016;-2.260;2023-07-08T14:30:15;6.20;;;2.50;;
59306;SDS011;47983;53.016;-2.260;2023-07-08T14:32:43;8.75;;;2.80;;
59306;SDS011;47983;53.016;-2.260;2023-07-08T14:37:43;6.55;;;2.55;;
59306;SDS011;47983;53.016;-2.260;2023-07-08T14:40:15;6.28;;;2.58;;
59306;SDS011;47983;53.016;-2.260;2023-07-08T14:42:46;6.80;;;2.65;;
59306;SDS011;47983;53.016;-2.260;2023-07-08T14:45:18;4.63;;;2.67;;
59306;SDS011;47983;53.016;-2.260;2023-07-08T14:47:45;6.85;;;2.78;;
59306;SDS011;47983;53.016;-2.260;2023-07-08T14:50:14;6.35;;;2.72;;
59306;SDS011;47983;53.016;-2.260;2023-07-08T14:52:42;6.20;;;2.50;;
59306;SDS011;47983;53.016;-2.260;2023-07-08T14:55:10;8.52;;;2.90;;
59306;SDS011;47983;53.016;-2.260;2023-07-08T14:57:41;8.43;;;3.10;;
59306;SDS011;47983;53.016;-2.260;2023-07-08T15:00:13;9.55;;;2.40;;
59306;SDS011;47983;53.016;-2.260;2023-07-08T15:02:44;7.57;;;3.10;;
59306;SDS011;47983;53.016;-2.260;2023-07-08T15:05:14;6.40;;;2.40;;
59306;SDS011;47983;53.016;-2.260;2023-07-08T15:07:44;6.40;;;2.28;;
59306;SDS011;47983;53.016;-2.260;2023-07-08T15:10:15;7.78;;;2.63;;
59306;SDS011;47983;53.016;-2.260;2023-07-08T15:12:42;8.23;;;2.60;;
59306;SDS011;47983;53.016;-2.260;2023-07-08T15:15:20;10.73;;;2.42;;
59306;SDS011;47983;53.016;-2.260;2023-07-08T15:17:53;8.68;;;3.15;;
59306;SDS011;47983;53.016;-2.260;2023-07-08T15:20:22;7.50;;;3.22;;
59306;SDS011;47983;53.016;-2.260;2023-07-08T15:22:49;10.63;;;2.83;;
59306;SDS011;47983;53.016;-2.260;2023-07-08T15:25:18;7.15;;;3.00;;
59306;SDS011;47983;53.016;-2.260;2023-07-08T15:27:47;6.93;;;2.75;;
59306;SDS011;47983;53.016;-2.260;2023-07-08T15:30:22;5.63;;;2.70;;
59306;SDS011;47983;53.016;-2.260;2023-07-08T15:32:52;7.82;;;2.40;;
59306;SDS011;47983;53.016;-2.260;2023-07-08T15:35:21;5.63;;;3.03;;
59306;SDS011;47983;53.016;-2.260;2023-07-08T15:37:52;6.72;;;2.45;;
59306;SDS011;47983;53.016;-2.260;2023-07-08T15:40:20;5.68;;;3.13;;
59306;SDS011;47983;53.016;-2.260;2023-07-08T15:42:53;10.13;;;3.63;;
59306;SDS011;47983;53.016;-2.260;2023-07-08T15:45:24;6.25;;;3.22;;
59306;SDS011;47983;53.016;-2.260;2023-07-08T15:47:56;7.85;;;3.08;;
59306;SDS011;47983;53.016;-2.260;2023-07-08T15:50:26;7.63;;;3.20;;
59306;SDS011;47983;53.016;-2.260;2023-07-08T15:52:54;5.78;;;3.08;;
59306;SDS011;47983;53.016;-2.260;2023-07-08T15:55:23;7.47;;;2.70;;
59306;SDS011;47983;53.016;-2.260;2023-07-08T15:58:01;6.78;;;3.30;;
59306;SDS011;47983;53.016;-2.260;2023-07-08T16:00:32;7.03;;;3.08;;
59306;SDS011;47983;53.016;-2.260;2023-07-08T16:03:05;8.27;;;3.10;;
59306;SDS011;47983;53.016;-2.260;2023-07-08T16:05:37;7.60;;;3.45;;
59306;SDS011;47983;53.016;-2.260;2023-07-08T16:08:05;11.52;;;3.00;;
59306;SDS011;47983;53.016;-2.260;2023-07-08T16:10:32;6.88;;;2.28;;